Eureka, Indiana
Current Conditions -  °F | °C
As of 9:56 PM on Tuesday 21 Oct 2014 (Local Time) from KOWB Reporting Station
Clear Clear  
Wind Chill: 52°   Ceiling: Unl
Heat Index: 52°   Visibility: 10mi
Dew Point: 42°   Wind: 3mph
Humidity: 69%   Direction: 30°NNE
Pressure: 30.18"   Gusts: NA
Location:  37.8791°N, 87.0955°W
Report Text: KOWB 220256Z 03003KT 10SM CLR 11/06 A3018 RMK AO2 51018 T01110055 SLP217
Loading
Personal Weather Stations






























Interactive Weather Map
Tropical Storm Tracking
New forecast layout! Learn more

10-Day Weather Forecast

Advertisements
Track Severe Weather on mobile